Time;durP1;ratioP1;P1;durP2;ratioP2;P2;SDS_P1;SDS_P2;PMS_P1;PMS_P2;Temp;Humidity;BMP_temperature;BMP_pressure;BME280_temperature;BME280_humidity;BME280_pressure;Samples;Min_cycle;Max_cycle;Signal;HPM_P1;HPM_P2
2023/03/31 00:02:20;;;;;;;12.88;3.70;;;;;;;;;;5043650;28;20135;-61
2023/03/31 00:04:51;;;;;;;14.15;3.38;;;;;;;;;;5043093;28;20483;-61
2023/03/31 00:07:20;;;;;;;18.55;4.93;;;;;;;;;;5041127;28;20265;-61
2023/03/31 00:09:47;;;;;;;11.68;3.03;;;;;;;;;;5043050;28;20041;-61
2023/03/31 00:12:16;;;;;;;15.20;3.75;;;;;;;;;;5042138;28;20108;-61
2023/03/31 00:14:43;;;;;;;15.10;3.72;;;;;;;;;;5042327;28;20041;-61
2023/03/31 00:17:10;;;;;;;19.83;4.28;;;;;;;;;;5043188;28;20044;-61
2023/03/31 00:19:36;;;;;;;11.32;3.20;;;;;;;;;;5042321;28;20045;-61
2023/03/31 00:22:04;;;;;;;11.82;3.83;;;;;;;;;;5043133;28;20110;-61
2023/03/31 00:24:33;;;;;;;13.32;3.38;;;;;;;;;;5042908;28;20041;-61
2023/03/31 00:26:59;;;;;;;13.48;4.20;;;;;;;;;;5042146;28;20101;-61
2023/03/31 00:29:26;;;;;;;16.55;3.42;;;;;;;;;;5043563;28;20045;-61
2023/03/31 00:31:52;;;;;;;10.57;2.92;;;;;;;;;;5042948;28;20056;-61
2023/03/31 00:34:18;;;;;;;11.25;2.97;;;;;;;;;;5041765;28;20087;-61
2023/03/31 00:36:46;;;;;;;12.48;4.03;;;;;;;;;;5043486;28;20080;-61
2023/03/31 00:39:13;;;;;;;19.85;3.78;;;;;;;;;;5042375;28;20467;-61
2023/03/31 00:41:40;;;;;;;13.30;3.40;;;;;;;;;;5042974;28;20049;-61
2023/03/31 00:44:09;;;;;;;10.40;2.80;;;;;;;;;;5043514;28;20044;-61
2023/03/31 00:46:43;;;;;;;15.23;3.38;;;;;;;;;;5044093;28;20053;-61
2023/03/31 00:49:15;;;;;;;13.25;3.30;;;;;;;;;;5043758;28;20044;-61
2023/03/31 00:51:42;;;;;;;13.00;3.40;;;;;;;;;;5046750;28;20528;-61
2023/03/31 00:54:10;;;;;;;9.27;2.70;;;;;;;;;;5046630;28;20041;-61
2023/03/31 00:56:39;;;;;;;15.43;3.40;;;;;;;;;;5046782;28;20044;-61
2023/03/31 00:59:06;;;;;;;9.10;2.50;;;;;;;;;;5046394;28;20265;-61
2023/03/31 01:01:34;;;;;;;14.75;3.55;;;;;;;;;;5046788;28;20041;-61
2023/03/31 01:04:01;;;;;;;14.52;3.75;;;;;;;;;;5046641;28;20096;-62
2023/03/31 01:06:29;;;;;;;8.57;2.55;;;;;;;;;;5046100;28;20044;-61
2023/03/31 01:08:56;;;;;;;11.65;2.92;;;;;;;;;;5046926;28;20052;-61
2023/03/31 01:11:24;;;;;;;7.80;2.33;;;;;;;;;;5042092;28;20049;-61
2023/03/31 01:13:51;;;;;;;5.55;1.90;;;;;;;;;;5045686;28;20059;-62
2023/03/31 01:16:18;;;;;;;2.28;1.17;;;;;;;;;;5046431;28;20052;-62
2023/03/31 01:18:48;;;;;;;7.32;1.95;;;;;;;;;;5045849;28;20090;-62
2023/03/31 01:21:29;;;;;;;6.10;1.40;;;;;;;;;;5045765;28;20045;-62
2023/03/31 01:24:14;;;;;;;6.15;2.42;;;;;;;;;;5046181;28;20872;-62
2023/03/31 01:26:43;;;;;;;2.08;1.55;;;;;;;;;;5046018;28;20103;-62
2023/03/31 01:29:15;;;;;;;8.45;2.10;;;;;;;;;;5042323;28;20029;-63
2023/03/31 01:31:50;;;;;;;9.10;2.88;;;;;;;;;;5044617;28;20063;-62
2023/03/31 01:34:41;;;;;;;7.90;2.53;;;;;;;;;;5043250;28;20044;-62
2023/03/31 01:37:22;;;;;;;12.13;2.95;;;;;;;;;;5040994;28;20106;-62
2023/03/31 01:39:57;;;;;;;7.13;2.40;;;;;;;;;;5046221;28;20140;-62
2023/03/31 01:42:38;;;;;;;5.90;2.00;;;;;;;;;;5045495;28;20106;-62
2023/03/31 01:45:19;;;;;;;10.02;3.25;;;;;;;;;;5045467;28;20406;-62
2023/03/31 01:47:48;;;;;;;4.65;1.73;;;;;;;;;;5044731;28;20705;-62
2023/03/31 01:50:35;;;;;;;7.85;2.53;;;;;;;;;;5044789;28;20045;-62
2023/03/31 01:53:03;;;;;;;15.95;3.67;;;;;;;;;;5043733;28;20053;-62
2023/03/31 01:55:35;;;;;;;10.40;2.88;;;;;;;;;;5044190;28;20053;-62
2023/03/31 01:58:07;;;;;;;9.07;2.63;;;;;;;;;;5043819;28;20101;-62
2023/03/31 02:00:36;;;;;;;9.63;2.53;;;;;;;;;;5045592;28;20045;-62
2023/03/31 02:03:11;;;;;;;13.93;3.30;;;;;;;;;;5043940;28;20057;-62
2023/03/31 02:05:43;;;;;;;8.93;2.65;;;;;;;;;;5044401;28;20177;-62
2023/03/31 02:08:24;;;;;;;9.85;2.83;;;;;;;;;;5042432;28;20045;-62
2023/03/31 02:10:51;;;;;;;10.02;2.97;;;;;;;;;;5044955;28;20151;-62
2023/03/31 02:13:18;;;;;;;15.32;4.00;;;;;;;;;;5045337;28;20037;-62
2023/03/31 02:15:47;;;;;;;12.32;3.58;;;;;;;;;;5043602;28;20056;-62
2023/03/31 02:18:16;;;;;;;11.65;2.95;;;;;;;;;;5044672;28;20059;-62
2023/03/31 02:20:42;;;;;;;16.27;3.92;;;;;;;;;;5045091;28;20041;-62
2023/03/31 02:23:09;;;;;;;9.93;2.53;;;;;;;;;;5041001;28;20072;-62
2023/03/31 02:25:38;;;;;;;7.45;2.28;;;;;;;;;;5043830;28;20125;-62
2023/03/31 02:28:09;;;;;;;13.18;2.63;;;;;;;;;;5043339;28;20045;-62
2023/03/31 02:30:44;;;;;;;12.90;3.67;;;;;;;;;;5044548;28;20148;-62
2023/03/31 02:33:10;;;;;;;7.60;2.78;;;;;;;;;;5042736;28;20475;-62
2023/03/31 02:35:36;;;;;;;8.23;2.58;;;;;;;;;;5045463;28;20049;-62
2023/03/31 02:38:05;;;;;;;10.05;2.70;;;;;;;;;;5044369;28;20049;-62
2023/03/31 02:40:31;;;;;;;12.80;3.03;;;;;;;;;;5044910;28;20077;-62
2023/03/31 02:42:57;;;;;;;10.45;2.75;;;;;;;;;;5045170;28;20120;-62
2023/03/31 02:45:36;;;;;;;8.55;2.42;;;;;;;;;;5043509;28;20056;-62
2023/03/31 02:48:02;;;;;;;5.72;1.85;;;;;;;;;;5043740;28;20469;-62
2023/03/31 02:50:34;;;;;;;11.20;2.33;;;;;;;;;;5044600;28;20047;-62
2023/03/31 02:53:05;;;;;;;6.25;2.33;;;;;;;;;;5044406;28;20037;-62
2023/03/31 02:55:31;;;;;;;5.97;1.80;;;;;;;;;;5044489;28;20045;-63
2023/03/31 02:58:04;;;;;;;7.85;1.70;;;;;;;;;;5040237;28;20044;-62
2023/03/31 03:00:37;;;;;;;5.63;1.77;;;;;;;;;;5043435;28;20044;-62
2023/03/31 03:03:17;;;;;;;11.20;2.78;;;;;;;;;;5043533;28;20602;-62
2023/03/31 03:05:48;;;;;;;4.70;1.70;;;;;;;;;;5044005;28;20128;-62
2023/03/31 03:08:25;;;;;;;6.90;2.13;;;;;;;;;;5044221;28;20048;-62
2023/03/31 03:11:10;;;;;;;4.65;1.90;;;;;;;;;;5043619;28;20048;-62
2023/03/31 03:13:36;;;;;;;7.13;1.90;;;;;;;;;;5043925;28;20056;-62
2023/03/31 03:16:02;;;;;;;9.18;2.35;;;;;;;;;;5042451;28;20076;-62
2023/03/31 03:18:28;;;;;;;10.75;2.40;;;;;;;;;;5042802;28;20056;-62
2023/03/31 03:20:54;;;;;;;8.02;2.33;;;;;;;;;;5043470;28;20479;-62
2023/03/31 03:23:21;;;;;;;6.70;1.85;;;;;;;;;;5042629;28;20052;-62
2023/03/31 03:25:47;;;;;;;13.05;2.83;;;;;;;;;;5044138;28;20044;-62
2023/03/31 03:28:13;;;;;;;9.57;2.67;;;;;;;;;;5042913;28;20487;-62
2023/03/31 03:30:40;;;;;;;6.85;1.75;;;;;;;;;;5042320;28;20057;-62
2023/03/31 03:33:06;;;;;;;6.22;2.70;;;;;;;;;;5044301;28;20395;-62
2023/03/31 03:35:32;;;;;;;6.80;1.73;;;;;;;;;;5043648;28;20071;-62
2023/03/31 03:37:59;;;;;;;6.45;1.92;;;;;;;;;;5042796;28;20045;-62
2023/03/31 03:40:25;;;;;;;4.53;1.48;;;;;;;;;;5042870;28;20399;-62
2023/03/31 03:42:51;;;;;;;3.17;1.20;;;;;;;;;;5043142;28;20037;-62
2023/03/31 03:45:17;;;;;;;4.00;1.40;;;;;;;;;;5043670;28;20495;-62
2023/03/31 03:47:43;;;;;;;4.95;1.80;;;;;;;;;;5043681;28;20033;-61
2023/03/31 03:50:10;;;;;;;3.53;1.77;;;;;;;;;;5043882;28;20142;-62
2023/03/31 03:52:36;;;;;;;4.43;1.52;;;;;;;;;;5043742;28;20076;-62
2023/03/31 03:55:02;;;;;;;7.30;1.65;;;;;;;;;;5043126;28;20478;-62
2023/03/31 03:57:28;;;;;;;3.75;1.58;;;;;;;;;;5042047;28;20187;-62
2023/03/31 03:59:54;;;;;;;4.55;2.03;;;;;;;;;;5042429;28;20052;-62
2023/03/31 04:02:20;;;;;;;9.27;2.55;;;;;;;;;;5043136;28;20131;-62
2023/03/31 04:04:46;;;;;;;6.40;2.08;;;;;;;;;;5042750;28;20121;-62
2023/03/31 04:07:12;;;;;;;6.72;2.28;;;;;;;;;;5042417;28;20049;-62
2023/03/31 04:09:38;;;;;;;7.80;1.90;;;;;;;;;;5040834;28;20081;-62
2023/03/31 04:12:04;;;;;;;10.27;2.67;;;;;;;;;;5041749;28;20659;-62
2023/03/31 04:14:30;;;;;;;8.65;2.50;;;;;;;;;;5043295;28;20135;-62
2023/03/31 04:16:57;;;;;;;11.27;2.80;;;;;;;;;;5041700;28;20128;-62
2023/03/31 04:19:24;;;;;;;4.50;1.73;;;;;;;;;;5043276;28;20041;-62
2023/03/31 04:21:57;;;;;;;4.65;1.60;;;;;;;;;;5044852;28;20041;-62
2023/03/31 04:24:29;;;;;;;4.80;2.22;;;;;;;;;;5046537;28;20131;-61
2023/03/31 04:26:55;;;;;;;5.65;2.25;;;;;;;;;;5044919;28;20053;-62
2023/03/31 04:29:25;;;;;;;4.47;1.52;;;;;;;;;;5047046;28;20167;-62
2023/03/31 04:31:52;;;;;;;8.77;2.78;;;;;;;;;;5046481;28;20480;-62
2023/03/31 04:34:21;;;;;;;5.32;2.13;;;;;;;;;;5047125;28;20052;-62
2023/03/31 04:36:47;;;;;;;5.55;2.63;;;;;;;;;;5046284;28;20044;-62
2023/03/31 04:39:17;;;;;;;5.18;2.00;;;;;;;;;;5045316;28;20040;-62
2023/03/31 04:41:43;;;;;;;7.45;2.90;;;;;;;;;;5044894;28;20146;-62
2023/03/31 04:44:09;;;;;;;4.40;2.40;;;;;;;;;;5046604;28;20057;-61
2023/03/31 04:46:35;;;;;;;4.28;2.15;;;;;;;;;;5045741;28;20247;-61
2023/03/31 04:49:02;;;;;;;6.07;1.80;;;;;;;;;;5046742;28;20040;-62
2023/03/31 04:51:28;;;;;;;2.58;1.98;;;;;;;;;;5046432;28;20052;-61
2023/03/31 04:53:54;;;;;;;8.38;2.30;;;;;;;;;;5046546;28;20055;-62
2023/03/31 04:56:21;;;;;;;3.20;1.75;;;;;;;;;;5045414;28;20067;-61
2023/03/31 04:58:47;;;;;;;3.88;1.77;;;;;;;;;;5045555;28;20044;-61
2023/03/31 05:01:16;;;;;;;2.70;1.90;;;;;;;;;;5045129;28;20040;-62
2023/03/31 05:03:43;;;;;;;3.30;2.03;;;;;;;;;;5045373;28;20390;-62
2023/03/31 05:06:09;;;;;;;4.53;2.33;;;;;;;;;;5043736;28;20171;-62
2023/03/31 05:08:36;;;;;;;2.20;1.67;;;;;;;;;;5044912;28;20113;-62
2023/03/31 05:11:02;;;;;;;5.03;1.85;;;;;;;;;;5046434;28;20473;-62
2023/03/31 05:13:28;;;;;;;4.45;2.22;;;;;;;;;;5045965;28;20048;-62
2023/03/31 05:15:54;;;;;;;2.60;2.17;;;;;;;;;;5045110;28;20654;-62
2023/03/31 05:18:20;;;;;;;3.00;2.08;;;;;;;;;;5046283;28;20053;-62
2023/03/31 05:20:46;;;;;;;2.90;2.00;;;;;;;;;;5042792;28;20543;-62
2023/03/31 05:23:13;;;;;;;3.80;1.52;;;;;;;;;;5044734;28;20029;-61
2023/03/31 05:25:41;;;;;;;4.65;2.28;;;;;;;;;;5046579;28;20051;-62
2023/03/31 05:28:08;;;;;;;2.70;1.65;;;;;;;;;;5045918;28;20376;-62
2023/03/31 05:30:34;;;;;;;4.10;2.20;;;;;;;;;;5046193;28;20057;-62
2023/03/31 05:33:01;;;;;;;2.20;1.98;;;;;;;;;;5045900;28;20386;-62
2023/03/31 05:35:28;;;;;;;5.18;3.03;;;;;;;;;;5044495;28;20055;-62
2023/03/31 05:37:54;;;;;;;5.25;2.75;;;;;;;;;;5046146;28;20075;-61
2023/03/31 05:40:20;;;;;;;6.90;3.20;;;;;;;;;;5041480;28;20053;-62
2023/03/31 05:42:46;;;;;;;5.95;2.90;;;;;;;;;;5046091;28;20041;-62
2023/03/31 05:45:13;;;;;;;5.80;3.03;;;;;;;;;;5044882;28;20613;-61
2023/03/31 05:47:39;;;;;;;5.03;2.78;;;;;;;;;;5044614;28;20121;-61
2023/03/31 05:50:07;;;;;;;3.05;2.28;;;;;;;;;;5044340;28;20044;-62
2023/03/31 05:52:33;;;;;;;4.60;2.65;;;;;;;;;;5044113;28;20044;-62
2023/03/31 05:54:59;;;;;;;6.90;2.80;;;;;;;;;;5045302;28;20482;-62
2023/03/31 05:57:25;;;;;;;4.43;2.42;;;;;;;;;;5045601;28;20044;-62
2023/03/31 05:59:51;;;;;;;4.60;3.13;;;;;;;;;;5044559;28;20048;-62
2023/03/31 06:02:17;;;;;;;5.30;2.80;;;;;;;;;;5044813;28;20546;-62
2023/03/31 06:04:43;;;;;;;2.67;2.22;;;;;;;;;;5045327;28;20120;-62
2023/03/31 06:07:10;;;;;;;3.28;1.90;;;;;;;;;;5044175;28;20516;-62
2023/03/31 06:09:36;;;;;;;4.15;2.60;;;;;;;;;;5043741;28;20061;-62
2023/03/31 06:12:02;;;;;;;3.22;1.58;;;;;;;;;;5043617;28;20099;-62
2023/03/31 06:14:28;;;;;;;3.17;2.00;;;;;;;;;;5044291;28;20053;-62
2023/03/31 06:16:54;;;;;;;7.70;2.63;;;;;;;;;;5043024;28;20716;-62
2023/03/31 06:19:20;;;;;;;4.07;2.42;;;;;;;;;;5044877;28;20052;-62
2023/03/31 06:21:46;;;;;;;6.10;2.75;;;;;;;;;;5044819;28;20328;-63
2023/03/31 06:24:12;;;;;;;2.03;1.67;;;;;;;;;;5044585;28;20048;-63
2023/03/31 06:26:38;;;;;;;2.50;1.80;;;;;;;;;;5045148;28;20123;-63
2023/03/31 06:29:04;;;;;;;2.83;1.88;;;;;;;;;;5041957;28;20097;-63
2023/03/31 06:31:30;;;;;;;4.07;1.70;;;;;;;;;;5044086;28;20049;-63
2023/03/31 06:33:57;;;;;;;2.15;1.10;;;;;;;;;;5044199;28;20546;-62
2023/03/31 06:36:23;;;;;;;5.28;1.48;;;;;;;;;;5036834;28;20445;-63
2023/03/31 06:38:49;;;;;;;2.90;1.33;;;;;;;;;;5043100;28;20041;-62
2023/03/31 06:41:17;;;;;;;4.80;1.70;;;;;;;;;;5041612;28;20118;-63
2023/03/31 06:43:43;;;;;;;3.22;1.65;;;;;;;;;;5044331;28;20041;-63
2023/03/31 06:46:09;;;;;;;2.50;1.40;;;;;;;;;;5044566;28;20115;-65
2023/03/31 06:48:35;;;;;;;3.05;1.33;;;;;;;;;;5046889;28;20414;-63
2023/03/31 06:51:03;;;;;;;3.28;1.95;;;;;;;;;;5040206;28;20095;-63
2023/03/31 06:53:29;;;;;;;3.60;2.20;;;;;;;;;;5042940;28;20175;-63
2023/03/31 06:55:55;;;;;;;3.25;2.20;;;;;;;;;;5045032;28;20411;-63
2023/03/31 06:58:21;;;;;;;3.08;1.80;;;;;;;;;;5044108;28;20040;-62
2023/03/31 07:00:47;;;;;;;3.03;2.15;;;;;;;;;;5040273;28;20048;-60
2023/03/31 07:03:17;;;;;;;5.10;1.75;;;;;;;;;;5044108;28;20045;-60
2023/03/31 07:05:47;;;;;;;3.17;1.98;;;;;;;;;;5044309;28;20090;-60
2023/03/31 07:08:13;;;;;;;2.75;1.30;;;;;;;;;;5041152;28;20045;-60
2023/03/31 07:10:39;;;;;;;2.70;1.40;;;;;;;;;;5036828;28;20095;-60
2023/03/31 07:13:05;;;;;;;1.52;1.40;;;;;;;;;;5040393;28;20041;-63
2023/03/31 07:15:32;;;;;;;4.50;1.73;;;;;;;;;;5043786;28;20052;-63
2023/03/31 07:18:00;;;;;;;3.00;1.63;;;;;;;;;;5043197;28;20486;-63
2023/03/31 07:20:27;;;;;;;1.42;1.08;;;;;;;;;;5042537;28;20076;-63
2023/03/31 07:22:53;;;;;;;1.92;1.30;;;;;;;;;;5042612;28;20043;-63
2023/03/31 07:25:19;;;;;;;3.58;1.50;;;;;;;;;;5043694;28;20377;-63
2023/03/31 07:27:45;;;;;;;2.15;1.30;;;;;;;;;;5038866;28;20196;-63
2023/03/31 07:30:14;;;;;;;1.98;1.40;;;;;;;;;;5042444;28;20434;-63
2023/03/31 07:32:40;;;;;;;0.93;0.70;;;;;;;;;;5042955;28;20048;-63
2023/03/31 07:35:07;;;;;;;1.40;1.30;;;;;;;;;;5042456;28;20795;-63
2023/03/31 07:37:36;;;;;;;3.92;1.73;;;;;;;;;;5041405;28;20480;-63
2023/03/31 07:40:04;;;;;;;0.88;0.88;;;;;;;;;;5042251;28;20067;-63
2023/03/31 07:42:30;;;;;;;2.17;1.20;;;;;;;;;;5042371;28;20052;-63
2023/03/31 07:44:56;;;;;;;2.20;1.80;;;;;;;;;;5044318;28;20079;-63
2023/03/31 07:47:23;;;;;;;3.13;1.70;;;;;;;;;;5038977;28;20041;-63
2023/03/31 07:49:49;;;;;;;2.72;1.70;;;;;;;;;;5040141;28;20395;-62
2023/03/31 07:52:16;;;;;;;3.20;1.63;;;;;;;;;;5041755;28;20052;-62
2023/03/31 07:54:42;;;;;;;1.30;1.10;;;;;;;;;;5043542;28;20513;-63
2023/03/31 07:57:08;;;;;;;2.22;1.33;;;;;;;;;;5042519;28;20487;-62
2023/03/31 07:59:34;;;;;;;1.33;1.10;;;;;;;;;;5043557;28;20060;-62
2023/03/31 08:02:01;;;;;;;1.25;0.90;;;;;;;;;;5042164;28;20461;-63
2023/03/31 08:04:27;;;;;;;1.15;0.90;;;;;;;;;;5042030;28;20056;-62
2023/03/31 08:06:53;;;;;;;1.50;1.10;;;;;;;;;;5041683;28;20122;-62
2023/03/31 08:09:21;;;;;;;3.35;1.15;;;;;;;;;;5042511;28;20052;-62
2023/03/31 08:11:47;;;;;;;0.65;0.60;;;;;;;;;;5042039;28;20491;-63
2023/03/31 08:14:13;;;;;;;1.08;0.90;;;;;;;;;;5043938;28;20041;-63
2023/03/31 08:16:39;;;;;;;1.10;0.88;;;;;;;;;;5044086;28;20048;-63
2023/03/31 08:19:05;;;;;;;2.80;0.60;;;;;;;;;;5044209;28;20132;-62
2023/03/31 08:21:31;;;;;;;2.30;1.05;;;;;;;;;;5043297;28;20072;-62
2023/03/31 08:23:57;;;;;;;1.23;0.93;;;;;;;;;;5041646;28;20384;-62
2023/03/31 08:26:24;;;;;;;1.20;0.75;;;;;;;;;;5043025;28;20685;-62
2023/03/31 08:28:50;;;;;;;2.65;1.40;;;;;;;;;;5044709;28;20104;-62
2023/03/31 08:31:17;;;;;;;1.38;0.90;;;;;;;;;;5042308;28;20065;-62
2023/03/31 08:33:44;;;;;;;1.60;1.00;;;;;;;;;;5035094;28;20053;-61
2023/03/31 08:36:10;;;;;;;2.35;1.30;;;;;;;;;;5036562;28;20144;-61
2023/03/31 08:38:37;;;;;;;1.75;0.95;;;;;;;;;;5041847;28;20048;-62
2023/03/31 08:41:05;;;;;;;1.83;1.60;;;;;;;;;;5043360;28;20084;-62
2023/03/31 08:43:40;;;;;;;3.13;1.20;;;;;;;;;;5045145;28;20045;-61
2023/03/31 08:46:09;;;;;;;1.48;1.10;;;;;;;;;;5023659;28;20049;-62
2023/03/31 08:48:47;;;;;;;2.08;1.23;;;;;;;;;;5036981;28;20064;-61
2023/03/31 08:51:13;;;;;;;2.20;1.40;;;;;;;;;;5036862;28;20059;-62
2023/03/31 08:53:48;;;;;;;1.65;1.40;;;;;;;;;;5036618;28;20041;-62
2023/03/31 08:56:21;;;;;;;2.38;1.40;;;;;;;;;;5032718;28;20502;-62
2023/03/31 08:58:48;;;;;;;2.20;1.30;;;;;;;;;;5038354;28;20511;-62
2023/03/31 09:01:33;;;;;;;4.03;1.83;;;;;;;;;;5040778;28;20458;-62
2023/03/31 09:04:18;;;;;;;3.55;1.40;;;;;;;;;;5038242;28;20412;-62
2023/03/31 09:06:55;;;;;;;2.38;1.55;;;;;;;;;;5037565;28;20064;-62
2023/03/31 09:09:30;;;;;;;2.05;1.15;;;;;;;;;;5040633;28;20091;-62
2023/03/31 09:11:58;;;;;;;2.05;1.15;;;;;;;;;;5035889;28;20132;-62
2023/03/31 09:14:42;;;;;;;2.67;1.98;;;;;;;;;;5036584;28;20072;-62
2023/03/31 09:17:32;;;;;;;2.70;1.60;;;;;;;;;;5047186;28;20041;-61
2023/03/31 09:19:59;;;;;;;3.85;1.90;;;;;;;;;;5033495;28;20060;-62
2023/03/31 09:22:28;;;;;;;2.58;0.85;;;;;;;;;;5040910;28;20158;-62
2023/03/31 09:25:04;;;;;;;2.38;1.23;;;;;;;;;;5044787;28;20041;-62
2023/03/31 09:27:33;;;;;;;1.85;1.23;;;;;;;;;;5044905;28;20155;-62
2023/03/31 09:30:04;;;;;;;2.28;1.52;;;;;;;;;;5045119;28;20056;-62
2023/03/31 09:32:31;;;;;;;3.35;1.63;;;;;;;;;;5034461;28;20049;-62
2023/03/31 09:35:17;;;;;;;3.20;1.55;;;;;;;;;;5041749;28;20554;-62
2023/03/31 09:37:43;;;;;;;5.15;1.55;;;;;;;;;;5045194;28;20045;-62
2023/03/31 09:40:15;;;;;;;2.55;1.40;;;;;;;;;;5044846;28;20072;-62
2023/03/31 09:42:41;;;;;;;3.00;1.67;;;;;;;;;;5039880;28;20049;-62
2023/03/31 09:45:13;;;;;;;2.88;1.45;;;;;;;;;;5028193;28;20052;-62
2023/03/31 09:47:42;;;;;;;2.28;1.23;;;;;;;;;;5024603;28;20052;-62
2023/03/31 09:50:09;;;;;;;4.35;1.70;;;;;;;;;;5033849;28;20135;-62
2023/03/31 09:52:37;;;;;;;3.47;1.38;;;;;;;;;;5024592;28;20098;-62
2023/03/31 09:55:05;;;;;;;2.28;1.48;;;;;;;;;;5035986;28;20483;-62
2023/03/31 09:57:31;;;;;;;4.32;1.33;;;;;;;;;;5036988;28;20110;-62
2023/03/31 10:00:24;;;;;;;5.20;2.08;;;;;;;;;;5044536;28;20041;-62
2023/03/31 10:02:52;;;;;;;4.97;2.00;;;;;;;;;;5024587;28;20115;-62
2023/03/31 10:05:29;;;;;;;2.20;1.63;;;;;;;;;;5029017;28;20072;-62
2023/03/31 10:08:14;;;;;;;2.53;1.70;;;;;;;;;;5035392;28;20513;-62
2023/03/31 10:10:45;;;;;;;3.80;1.77;;;;;;;;;;5039534;28;20044;-62
2023/03/31 10:13:14;;;;;;;2.72;1.77;;;;;;;;;;5041198;28;20040;-62
2023/03/31 10:15:40;;;;;;;3.63;1.90;;;;;;;;;;5034031;28;20081;-63
2023/03/31 10:18:12;;;;;;;3.47;1.80;;;;;;;;;;5033822;28;20122;-62
2023/03/31 10:20:42;;;;;;;5.45;1.90;;;;;;;;;;5035649;28;20080;-62
2023/03/31 10:23:16;;;;;;;2.47;1.50;;;;;;;;;;5035833;28;20183;-62
2023/03/31 10:25:43;;;;;;;4.10;1.77;;;;;;;;;;5030847;28;20099;-62
2023/03/31 10:28:12;;;;;;;1.63;1.10;;;;;;;;;;5041410;28;20041;-62
2023/03/31 10:30:40;;;;;;;1.83;0.98;;;;;;;;;;5030327;28;20049;-63
2023/03/31 10:33:11;;;;;;;1.08;0.98;;;;;;;;;;5035018;28;20053;-63
2023/03/31 10:35:37;;;;;;;3.38;1.38;;;;;;;;;;5032526;28;20085;-62
2023/03/31 10:38:15;;;;;;;3.80;0.93;;;;;;;;;;5031391;28;20050;-63
2023/03/31 10:40:43;;;;;;;2.05;1.08;;;;;;;;;;5032068;28;20048;-62
2023/03/31 10:43:12;;;;;;;2.25;1.20;;;;;;;;;;5035165;28;20044;-62
2023/03/31 10:45:42;;;;;;;2.15;1.27;;;;;;;;;;5035645;28;20056;-62
2023/03/31 10:48:16;;;;;;;1.77;1.15;;;;;;;;;;5034426;28;20490;-62
2023/03/31 10:50:43;;;;;;;1.90;1.30;;;;;;;;;;5036104;28;20048;-62
2023/03/31 10:53:13;;;;;;;2.97;1.25;;;;;;;;;;5038554;28;20041;-62
2023/03/31 10:55:45;;;;;;;3.38;1.70;;;;;;;;;;5041828;28;20045;-63
2023/03/31 10:58:17;;;;;;;2.00;1.00;;;;;;;;;;5032054;28;20040;-63
2023/03/31 11:01:02;;;;;;;2.40;1.08;;;;;;;;;;5035282;28;20502;-63
2023/03/31 11:03:31;;;;;;;1.98;1.25;;;;;;;;;;5033248;28;20046;-63
2023/03/31 11:06:21;;;;;;;2.97;1.40;;;;;;;;;;5026449;28;20806;-62
2023/03/31 11:09:06;;;;;;;2.55;0.95;;;;;;;;;;5021848;28;20061;-63
2023/03/31 11:11:41;;;;;;;4.05;1.50;;;;;;;;;;5027890;28;20060;-63
2023/03/31 11:14:27;;;;;;;2.30;1.55;;;;;;;;;;5034571;28;20167;-63
2023/03/31 11:16:57;;;;;;;1.48;1.08;;;;;;;;;;5036930;28;20757;-63
2023/03/31 11:19:26;;;;;;;2.72;1.63;;;;;;;;;;5038950;28;20064;-63
2023/03/31 11:21:56;;;;;;;3.88;1.85;;;;;;;;;;5031634;28;20064;-63
2023/03/31 11:24:41;;;;;;;2.10;1.80;;;;;;;;;;5037817;28;20658;-63
2023/03/31 11:27:19;;;;;;;4.13;1.95;;;;;;;;;;5033322;28;20041;-63
2023/03/31 11:29:55;;;;;;;3.60;1.85;;;;;;;;;;5033508;28;20109;-63
2023/03/31 11:32:24;;;;;;;3.97;1.40;;;;;;;;;;5035139;28;20053;-63
2023/03/31 11:34:59;;;;;;;2.47;1.50;;;;;;;;;;5029205;28;20045;-64
2023/03/31 11:37:34;;;;;;;8.85;2.55;;;;;;;;;;5027704;28;20059;-63
2023/03/31 11:40:00;;;;;;;6.15;2.35;;;;;;;;;;5037327;28;20045;-63
2023/03/31 11:42:34;;;;;;;7.20;2.35;;;;;;;;;;5038375;28;20055;-63
2023/03/31 11:45:06;;;;;;;3.40;2.00;;;;;;;;;;5030777;28;20052;-63
2023/03/31 11:47:36;;;;;;;7.35;2.67;;;;;;;;;;5038321;28;20723;-63
2023/03/31 11:50:13;;;;;;;2.60;1.23;;;;;;;;;;5030023;28;20056;-64
2023/03/31 11:52:41;;;;;;;3.30;1.20;;;;;;;;;;5033257;28;20341;-63
2023/03/31 11:55:14;;;;;;;4.32;1.60;;;;;;;;;;5040366;28;20034;-63
2023/03/31 11:57:58;;;;;;;3.80;1.98;;;;;;;;;;5033713;28;20049;-63
2023/03/31 12:00:27;;;;;;;3.42;1.70;;;;;;;;;;5030555;28;20384;-63
2023/03/31 12:03:06;;;;;;;3.80;1.88;;;;;;;;;;5040064;28;20541;-63
2023/03/31 12:05:34;;;;;;;6.18;1.73;;;;;;;;;;5041276;28;20494;-63
2023/03/31 12:08:07;;;;;;;5.60;1.85;;;;;;;;;;5035418;28;20784;-64
2023/03/31 12:10:43;;;;;;;2.70;1.67;;;;;;;;;;5031553;28;20052;-64
2023/03/31 12:13:29;;;;;;;2.65;1.33;;;;;;;;;;5038202;28;20499;-64
2023/03/31 12:16:02;;;;;;;1.20;1.10;;;;;;;;;;5035323;28;20048;-63
2023/03/31 12:18:30;;;;;;;3.03;1.25;;;;;;;;;;5041535;28;20049;-64
2023/03/31 12:20:57;;;;;;;2.30;1.23;;;;;;;;;;5039755;28;20040;-63
2023/03/31 12:23:24;;;;;;;2.95;1.20;;;;;;;;;;5041369;28;20052;-63
2023/03/31 12:26:08;;;;;;;2.70;1.48;;;;;;;;;;5036093;28;20125;-63
2023/03/31 12:28:37;;;;;;;3.00;1.40;;;;;;;;;;5036755;28;20126;-63
2023/03/31 12:31:04;;;;;;;1.67;1.17;;;;;;;;;;5036440;28;20053;-63
2023/03/31 12:33:32;;;;;;;4.15;1.90;;;;;;;;;;5031546;28;20057;-62
2023/03/31 12:36:17;;;;;;;3.72;1.85;;;;;;;;;;5036302;28;20051;-63
2023/03/31 12:38:52;;;;;;;4.82;1.42;;;;;;;;;;5039631;28;20049;-62
2023/03/31 12:41:21;;;;;;;1.75;1.10;;;;;;;;;;5038776;28;20056;-63
2023/03/31 12:43:56;;;;;;;2.33;1.00;;;;;;;;;;5044829;28;20182;-62
2023/03/31 12:46:25;;;;;;;2.83;1.10;;;;;;;;;;5046486;28;20523;-62
2023/03/31 12:49:14;;;;;;;2.15;0.77;;;;;;;;;;5044582;28;20056;-62
2023/03/31 12:52:02;;;;;;;1.42;0.93;;;;;;;;;;5046238;28;20053;-63
2023/03/31 12:54:54;;;;;;;1.30;0.93;;;;;;;;;;5046433;28;20148;-62
2023/03/31 12:57:22;;;;;;;2.13;0.85;;;;;;;;;;5039073;28;20407;-62
2023/03/31 13:00:11;;;;;;;1.85;0.73;;;;;;;;;;5038204;28;20045;-63
2023/03/31 13:02:38;;;;;;;2.10;0.85;;;;;;;;;;5036219;28;20049;-63
2023/03/31 13:05:23;;;;;;;2.45;1.15;;;;;;;;;;5039631;28;20041;-62
2023/03/31 13:07:49;;;;;;;4.78;1.65;;;;;;;;;;5044694;28;20049;-62
2023/03/31 13:10:20;;;;;;;3.58;1.50;;;;;;;;;;5046841;28;20053;-62
2023/03/31 13:13:12;;;;;;;5.88;2.53;;;;;;;;;;5046624;28;20314;-62
2023/03/31 13:15:38;;;;;;;;;;;;;;;;;;5046190;28;20057;-62
2023/03/31 13:18:05;;;;;;;2.72;1.40;;;;;;;;;;5044785;28;19932;-67
2023/03/31 13:20:31;;;;;;;5.47;1.75;;;;;;;;;;5036025;28;20114;-67
2023/03/31 13:23:04;;;;;;;5.03;2.00;;;;;;;;;;5045489;28;20639;-67
2023/03/31 13:25:30;;;;;;;5.18;2.42;;;;;;;;;;5045461;28;20048;-67
2023/03/31 13:28:17;;;;;;;4.47;2.20;;;;;;;;;;5045540;28;20163;-67
2023/03/31 13:30:42;;;;;;;3.88;1.83;;;;;;;;;;5020474;28;20060;-67
2023/03/31 13:33:27;;;;;;;4.28;1.45;;;;;;;;;;5045266;28;20424;-67
2023/03/31 13:36:01;;;;;;;2.13;1.20;;;;;;;;;;5045924;28;20120;-66
2023/03/31 13:38:27;;;;;;;3.17;1.42;;;;;;;;;;5046293;28;20072;-67
2023/03/31 13:41:08;;;;;;;3.78;1.42;;;;;;;;;;5045355;28;20099;-67
2023/03/31 13:43:49;;;;;;;4.85;2.00;;;;;;;;;;5045892;28;20053;-67
2023/03/31 13:46:25;;;;;;;3.00;1.67;;;;;;;;;;5045129;28;20044;-66
2023/03/31 13:49:12;;;;;;;4.50;2.10;;;;;;;;;;5043402;28;20143;-66
2023/03/31 13:51:53;;;;;;;4.05;1.60;;;;;;;;;;5044800;28;20045;-67
2023/03/31 13:54:22;;;;;;;3.83;1.30;;;;;;;;;;5037884;28;20072;-67
2023/03/31 13:56:55;;;;;;;2.72;1.10;;;;;;;;;;5031633;28;20041;-67
2023/03/31 13:59:46;;;;;;;1.55;0.80;;;;;;;;;;5039202;28;20053;-68
2023/03/31 14:02:12;;;;;;;2.38;0.90;;;;;;;;;;5036270;28;20040;-68
2023/03/31 14:04:47;;;;;;;0.80;0.50;;;;;;;;;;5035519;28;20049;-68
2023/03/31 14:07:16;;;;;;;1.50;1.00;;;;;;;;;;5033522;28;20565;-67
2023/03/31 14:09:48;;;;;;;1.02;0.65;;;;;;;;;;5037395;28;20868;-68
2023/03/31 14:12:20;;;;;;;1.45;0.52;;;;;;;;;;5032958;28;20068;-68
2023/03/31 14:14:47;;;;;;;;;;;;;;;;;;5039118;28;20083;-68
2023/03/31 14:17:14;;;;;;;2.30;0.90;;;;;;;;;;5037812;28;19924;-68
2023/03/31 14:19:57;;;;;;;1.45;0.60;;;;;;;;;;5033654;28;20399;-65
2023/03/31 14:22:23;;;;;;;1.00;0.70;;;;;;;;;;5031450;28;20120;-66
2023/03/31 14:24:59;;;;;;;3.08;0.85;;;;;;;;;;5040194;28;20122;-67
2023/03/31 14:27:37;;;;;;;1.27;0.68;;;;;;;;;;5035747;28;20061;-67
2023/03/31 14:30:12;;;;;;;1.77;0.75;;;;;;;;;;5042563;28;20132;-67
2023/03/31 14:32:57;;;;;;;2.20;0.77;;;;;;;;;;5044517;28;20051;-67
2023/03/31 14:35:38;;;;;;;3.20;1.20;;;;;;;;;;5042765;28;20059;-67
2023/03/31 14:38:06;;;;;;;3.35;0.80;;;;;;;;;;5042979;28;20076;-67
2023/03/31 14:40:33;;;;;;;2.88;1.10;;;;;;;;;;5043336;28;20057;-67
2023/03/31 14:42:59;;;;;;;1.77;1.00;;;;;;;;;;5043562;28;20049;-67
2023/03/31 14:45:30;;;;;;;3.83;1.20;;;;;;;;;;5046444;28;20040;-67
2023/03/31 14:48:13;;;;;;;3.50;1.45;;;;;;;;;;5046054;28;20059;-67
2023/03/31 14:50:42;;;;;;;1.38;0.95;;;;;;;;;;5045314;28;20083;-66
2023/03/31 14:53:13;;;;;;;1.63;1.00;;;;;;;;;;5044693;28;20483;-67
2023/03/31 14:55:40;;;;;;;4.93;1.60;;;;;;;;;;5046074;28;20101;-68
2023/03/31 14:58:08;;;;;;;3.33;1.63;;;;;;;;;;5043857;28;20052;-68
2023/03/31 15:00:35;;;;;;;3.13;1.30;;;;;;;;;;5046421;28;20056;-68
2023/03/31 15:03:05;;;;;;;3.05;1.05;;;;;;;;;;5044130;28;20049;-68